createdAt,value
2018-07-09T00:02:00.077Z,2.60
2018-07-09T00:04:29.336Z,2.63
2018-07-09T00:06:58.556Z,3.03
2018-07-09T00:09:27.812Z,3.10
2018-07-09T00:11:57.052Z,2.93
2018-07-09T00:14:26.309Z,3.10
2018-07-09T00:16:55.556Z,4.27
2018-07-09T00:19:24.701Z,6.63
2018-07-09T00:21:54.009Z,4.60
2018-07-09T00:24:23.212Z,4.50
2018-07-09T00:26:52.499Z,4.80
2018-07-09T00:29:21.793Z,3.40
2018-07-09T00:31:51.057Z,3.20
2018-07-09T00:34:20.438Z,3.10
2018-07-09T00:36:49.648Z,3.00
2018-07-09T00:39:18.896Z,3.00
2018-07-09T00:41:48.282Z,3.10
2018-07-09T00:44:17.613Z,3.10
2018-07-09T00:46:46.844Z,2.70
2018-07-09T00:49:16.229Z,2.70
2018-07-09T00:51:45.667Z,3.10
2018-07-09T00:54:15.010Z,2.97
2018-07-09T00:56:44.201Z,2.80
2018-07-09T00:59:13.524Z,2.90
2018-07-09T01:01:42.718Z,3.00
2018-07-09T01:04:11.987Z,2.97
2018-07-09T01:06:41.169Z,3.07
2018-07-09T01:09:10.444Z,3.13
2018-07-09T01:11:45.517Z,3.20
2018-07-09T01:14:14.734Z,2.93
2018-07-09T01:16:43.928Z,2.83
2018-07-09T01:19:13.200Z,2.97
2018-07-09T01:21:42.409Z,2.80
2018-07-09T01:24:11.694Z,3.20
2018-07-09T01:26:42.101Z,3.20
2018-07-09T01:29:11.364Z,3.30
2018-07-09T01:31:40.624Z,3.20
2018-07-09T01:34:09.929Z,3.07
2018-07-09T01:36:39.140Z,3.03
2018-07-09T01:39:08.528Z,2.90
2018-07-09T01:41:37.740Z,2.93
2018-07-09T01:44:06.902Z,2.70
2018-07-09T01:46:36.155Z,2.70
2018-07-09T01:49:05.369Z,3.10
2018-07-09T01:51:34.601Z,3.00
2018-07-09T01:54:03.869Z,2.80
2018-07-09T01:56:33.149Z,3.00
2018-07-09T01:59:02.305Z,2.80
2018-07-09T02:01:31.596Z,3.03
2018-07-09T02:04:00.809Z,2.60
2018-07-09T02:06:30.068Z,2.70
2018-07-09T02:08:59.308Z,2.80
2018-07-09T02:11:28.553Z,2.80
2018-07-09T02:13:57.723Z,2.83
2018-07-09T02:16:27.145Z,2.77
2018-07-09T02:18:56.285Z,2.60
2018-07-09T02:21:25.572Z,2.90
2018-07-09T02:23:55.149Z,2.90
2018-07-09T02:26:24.433Z,3.13
2018-07-09T02:28:53.608Z,2.93
2018-07-09T02:31:22.884Z,3.23
2018-07-09T02:33:52.087Z,3.10
2018-07-09T02:36:21.349Z,3.30
2018-07-09T02:38:50.640Z,3.83
2018-07-09T02:41:19.866Z,3.37
2018-07-09T02:43:49.126Z,3.40
2018-07-09T02:46:18.298Z,3.10
2018-07-09T02:48:47.524Z,3.30
2018-07-09T02:51:16.709Z,3.47
2018-07-09T02:53:45.925Z,3.47
2018-07-09T02:56:15.081Z,3.70
2018-07-09T02:58:44.313Z,3.53
2018-07-09T03:01:13.580Z,4.00
2018-07-09T03:03:42.906Z,3.40
2018-07-09T03:06:12.077Z,3.80
2018-07-09T03:08:41.304Z,3.50
2018-07-09T03:11:10.487Z,3.40
2018-07-09T03:13:39.693Z,3.80
2018-07-09T03:16:08.928Z,3.63
2018-07-09T03:18:38.239Z,3.47
2018-07-09T03:21:07.628Z,4.00
2018-07-09T03:23:36.889Z,3.57
2018-07-09T03:26:06.061Z,3.77
2018-07-09T03:28:35.281Z,3.90
2018-07-09T03:31:04.560Z,3.60
2018-07-09T03:33:33.804Z,3.70
2018-07-09T03:36:02.987Z,3.87
2018-07-09T03:38:32.200Z,3.30
2018-07-09T03:41:01.493Z,3.90
2018-07-09T03:43:30.659Z,3.70
2018-07-09T03:45:59.902Z,3.43
2018-07-09T03:48:29.128Z,3.90
2018-07-09T03:50:58.378Z,3.90
2018-07-09T03:53:27.540Z,3.53
2018-07-09T03:55:56.773Z,3.70
2018-07-09T03:58:26.040Z,3.73
2018-07-09T04:00:55.282Z,3.70
2018-07-09T04:03:24.432Z,3.57
2018-07-09T04:05:53.777Z,3.93
2018-07-09T04:08:22.922Z,3.90
2018-07-09T04:10:52.148Z,4.77
2018-07-09T04:13:21.302Z,4.37
2018-07-09T04:15:50.539Z,4.23
2018-07-09T04:18:23.097Z,3.80
2018-07-09T04:20:53.276Z,3.90
2018-07-09T04:23:22.532Z,3.63
2018-07-09T04:25:51.905Z,2.97
2018-07-09T04:28:21.477Z,3.17
2018-07-09T04:30:51.555Z,3.50
2018-07-09T04:33:20.845Z,2.80
2018-07-09T04:35:50.059Z,2.60
2018-07-09T04:38:19.252Z,2.57
2018-07-09T04:40:48.469Z,2.60
2018-07-09T04:43:17.738Z,2.70
2018-07-09T04:45:47.201Z,2.77
2018-07-09T04:48:16.325Z,3.07
2018-07-09T04:50:45.461Z,2.80
2018-07-09T04:53:14.629Z,3.00
2018-07-09T04:55:43.793Z,2.70
2018-07-09T04:58:12.927Z,2.63
2018-07-09T05:00:42.124Z,2.70
2018-07-09T05:03:11.238Z,2.47
2018-07-09T05:05:40.553Z,2.50
2018-07-09T05:08:09.612Z,2.00
2018-07-09T05:10:38.951Z,1.97
2018-07-09T05:13:08.146Z,2.10
2018-07-09T05:15:37.288Z,2.00
2018-07-09T05:18:06.694Z,2.10
2018-07-09T05:20:35.907Z,2.00
2018-07-09T05:23:06.268Z,1.80
2018-07-09T05:25:35.731Z,1.70
2018-07-09T05:28:04.969Z,2.00
2018-07-09T05:30:34.133Z,1.20
2018-07-09T05:33:03.317Z,1.60
2018-07-09T05:35:32.496Z,1.20
2018-07-09T05:38:01.875Z,1.20
2018-07-09T05:40:31.365Z,1.20
2018-07-09T05:43:00.796Z,1.43
2018-07-09T05:45:30.088Z,1.10
2018-07-09T05:47:59.510Z,2.80
2018-07-09T05:50:28.765Z,1.40
2018-07-09T05:52:58.183Z,1.40
2018-07-09T05:55:27.405Z,1.80
2018-07-09T05:57:56.608Z,1.10
2018-07-09T06:00:26.044Z,1.27
2018-07-09T06:02:55.220Z,1.53
2018-07-09T06:05:24.417Z,1.10
2018-07-09T06:07:53.669Z,1.10
2018-07-09T06:10:22.852Z,1.20
2018-07-09T06:12:52.053Z,1.10
2018-07-09T06:15:21.197Z,3.10
2018-07-09T06:17:50.670Z,1.10
2018-07-09T06:20:19.924Z,1.33
2018-07-09T06:22:49.415Z,1.60
2018-07-09T06:25:18.656Z,1.40
2018-07-09T06:27:47.823Z,2.00
2018-07-09T06:30:17.096Z,1.60
2018-07-09T06:32:46.258Z,1.50
2018-07-09T06:35:15.437Z,1.70
2018-07-09T06:37:44.582Z,1.60
2018-07-09T06:40:13.805Z,1.60
2018-07-09T06:42:42.965Z,1.30
2018-07-09T06:45:12.191Z,1.60
2018-07-09T06:47:41.377Z,1.40
2018-07-09T06:50:10.718Z,1.20
2018-07-09T06:52:39.954Z,1.50
2018-07-09T06:55:09.377Z,1.60
2018-07-09T06:57:38.555Z,1.50
2018-07-09T07:00:07.773Z,1.70
2018-07-09T07:02:36.977Z,1.53
2018-07-09T07:05:06.481Z,1.87
2018-07-09T07:07:35.697Z,1.50
2018-07-09T07:10:04.969Z,1.40
2018-07-09T07:12:34.186Z,1.60
2018-07-09T07:15:03.591Z,1.80
2018-07-09T07:17:32.768Z,1.60
2018-07-09T07:20:02.371Z,1.70
2018-07-09T07:22:31.569Z,1.70
2018-07-09T07:25:00.785Z,1.70
2018-07-09T07:27:30.275Z,1.60
2018-07-09T07:29:59.577Z,1.50
2018-07-09T07:32:28.766Z,1.40
2018-07-09T07:34:57.987Z,2.00
2018-07-09T07:37:27.129Z,1.80
2018-07-09T07:39:56.328Z,2.03
2018-07-09T07:42:25.487Z,1.43
2018-07-09T07:44:54.722Z,1.60
2018-07-09T07:47:23.874Z,1.43
2018-07-09T07:49:55.385Z,1.37
2018-07-09T07:52:24.909Z,1.70
2018-07-09T07:54:54.304Z,1.63
2018-07-09T07:57:25.361Z,1.50
2018-07-09T07:59:54.773Z,1.30
2018-07-09T08:02:24.035Z,1.30
2018-07-09T08:04:53.579Z,1.30
2018-07-09T08:07:22.773Z,1.40
2018-07-09T08:09:53.013Z,1.80
2018-07-09T08:14:52.015Z,1.70
2018-07-09T08:17:21.411Z,1.60
2018-07-09T08:19:50.687Z,1.80
2018-07-09T08:22:19.947Z,1.50
2018-07-09T08:24:49.417Z,1.77
2018-07-09T08:27:18.665Z,1.50
2018-07-09T08:29:48.705Z,1.70
2018-07-09T08:32:18.003Z,1.83
2018-07-09T08:34:47.287Z,1.50
2018-07-09T08:37:16.520Z,1.10
2018-07-09T08:39:45.918Z,1.20
2018-07-09T08:42:15.210Z,1.30
2018-07-09T08:44:44.677Z,1.30
2018-07-09T08:47:14.436Z,1.10
2018-07-09T08:49:43.733Z,1.10
2018-07-09T08:52:12.946Z,1.10
2018-07-09T08:54:42.154Z,1.10
2018-07-09T08:57:11.306Z,1.00
2018-07-09T08:59:40.550Z,1.10
2018-07-09T09:02:09.925Z,1.00
2018-07-09T09:04:39.404Z,0.93
2018-07-09T09:07:08.634Z,0.80
2018-07-09T09:09:37.817Z,0.70
2018-07-09T09:12:07.359Z,0.90
2018-07-09T09:14:36.728Z,1.10
2018-07-09T09:17:06.012Z,1.07
2018-07-09T09:19:35.238Z,0.85
2018-07-09T09:22:04.507Z,0.90
2018-07-09T09:24:33.910Z,1.10
2018-07-09T09:27:03.144Z,0.80
2018-07-09T09:29:32.500Z,1.00
2018-07-09T09:32:02.076Z,1.00
2018-07-09T09:34:31.521Z,1.02
2018-07-09T09:37:01.038Z,1.10
2018-07-09T09:39:30.277Z,1.02
2018-07-09T09:42:00.953Z,1.22
2018-07-09T09:44:30.346Z,1.10
2018-07-09T09:46:59.614Z,1.17
2018-07-09T09:49:29.551Z,1.20
2018-07-09T09:51:58.888Z,1.30
2018-07-09T09:54:28.146Z,1.25
2018-07-09T09:56:57.552Z,1.50
2018-07-09T09:59:26.965Z,1.10
2018-07-09T10:01:56.402Z,1.10
2018-07-09T10:04:25.652Z,1.05
2018-07-09T10:06:54.897Z,0.80
2018-07-09T10:09:24.119Z,0.88
2018-07-09T10:11:53.393Z,1.00
2018-07-09T10:14:22.636Z,1.17
2018-07-09T10:16:51.937Z,0.90
2018-07-09T10:19:21.117Z,1.20
2018-07-09T10:21:50.361Z,1.20
2018-07-09T10:24:19.702Z,1.10
2018-07-09T10:26:49.058Z,1.10
2018-07-09T10:29:18.190Z,1.25
2018-07-09T10:31:47.564Z,1.00
2018-07-09T10:34:16.813Z,1.10
2018-07-09T10:36:46.001Z,1.07
2018-07-09T10:39:15.217Z,1.15
2018-07-09T10:41:44.454Z,1.20
2018-07-09T10:44:13.701Z,1.00
2018-07-09T10:46:42.947Z,0.90
2018-07-09T10:49:12.334Z,1.30
2018-07-09T10:51:41.647Z,1.00
2018-07-09T10:54:10.809Z,1.10
2018-07-09T10:56:40.043Z,1.10
2018-07-09T10:59:09.430Z,1.42
2018-07-09T11:01:38.749Z,1.20
2018-07-09T11:04:08.065Z,1.00
2018-07-09T11:06:37.297Z,1.00
2018-07-09T11:09:07.958Z,0.90
2018-07-09T11:11:37.652Z,0.98
2018-07-09T11:14:06.859Z,1.10
2018-07-09T11:16:36.183Z,1.12
2018-07-09T11:19:05.364Z,0.90
2018-07-09T11:21:34.714Z,1.20
2018-07-09T11:24:03.967Z,1.20
2018-07-09T11:26:33.192Z,1.10
2018-07-09T11:29:02.365Z,0.90
2018-07-09T11:31:32.648Z,1.12
2018-07-09T11:34:01.966Z,1.10
2018-07-09T11:36:31.265Z,1.02
2018-07-09T11:39:00.449Z,1.20
2018-07-09T11:41:29.680Z,1.40
2018-07-09T11:43:59.105Z,1.15
2018-07-09T11:46:28.398Z,1.10
2018-07-09T11:48:57.706Z,1.10
2018-07-09T11:51:26.985Z,1.10
2018-07-09T11:53:56.268Z,1.20
2018-07-09T11:56:25.504Z,1.20
2018-07-09T11:58:54.905Z,1.10
2018-07-09T12:01:24.187Z,1.57
2018-07-09T12:03:53.551Z,1.20
2018-07-09T12:06:22.805Z,1.50
2018-07-09T12:08:52.194Z,1.60
2018-07-09T12:11:21.412Z,1.37
2018-07-09T12:13:50.553Z,1.30
2018-07-09T12:16:19.840Z,1.42
2018-07-09T12:18:49.178Z,1.32
2018-07-09T12:21:18.655Z,1.77
2018-07-09T12:23:47.852Z,1.65
2018-07-09T12:26:17.100Z,1.30
2018-07-09T12:28:46.376Z,1.50
2018-07-09T12:31:15.743Z,1.40
2018-07-09T12:33:44.980Z,1.57
2018-07-09T12:36:14.341Z,1.32
2018-07-09T12:38:43.801Z,1.47
2018-07-09T12:41:13.104Z,1.50
2018-07-09T12:43:42.511Z,1.50
2018-07-09T12:46:11.721Z,1.52
2018-07-09T12:48:41.228Z,1.32
2018-07-09T12:51:10.591Z,0.90
2018-07-09T12:53:39.889Z,0.80
2018-07-09T12:56:09.208Z,1.00
2018-07-09T12:58:38.423Z,0.80
2018-07-09T13:01:07.877Z,0.80
2018-07-09T13:03:37.137Z,0.85
2018-07-09T13:06:06.523Z,0.90
2018-07-09T13:08:35.726Z,0.95
2018-07-09T13:11:05.098Z,1.10
2018-07-09T13:13:35.140Z,0.90
2018-07-09T13:16:04.456Z,1.10
2018-07-09T13:18:33.819Z,1.10
2018-07-09T13:21:04.050Z,1.00
2018-07-09T13:23:33.806Z,1.07
2018-07-09T13:26:03.070Z,0.90
2018-07-09T13:28:32.353Z,0.82
2018-07-09T13:31:01.710Z,0.90
2018-07-09T13:33:31.109Z,1.10
2018-07-09T13:36:00.556Z,1.10
2018-07-09T13:38:30.435Z,1.00
2018-07-09T13:40:59.597Z,1.12
2018-07-09T13:43:29.356Z,1.00
2018-07-09T13:45:59.097Z,1.20
2018-07-09T13:48:28.489Z,1.00
2018-07-09T13:50:57.945Z,1.07
2018-07-09T13:53:27.506Z,1.20
2018-07-09T13:55:57.036Z,1.05
2018-07-09T13:58:26.506Z,1.02
2018-07-09T14:00:55.981Z,1.15
2018-07-09T14:03:25.252Z,1.10
2018-07-09T14:05:54.725Z,1.20
2018-07-09T14:08:24.111Z,1.20
2018-07-09T14:10:53.533Z,1.30
2018-07-09T14:13:22.908Z,1.20
2018-07-09T14:15:52.154Z,1.30
2018-07-09T14:18:21.524Z,1.20
2018-07-09T14:20:50.924Z,1.27
2018-07-09T14:23:20.178Z,1.30
2018-07-09T14:25:49.489Z,1.37
2018-07-09T14:28:19.154Z,1.47
2018-07-09T14:30:50.876Z,1.40
2018-07-09T14:33:20.134Z,1.40
2018-07-09T14:35:49.352Z,1.32
2018-07-09T14:38:18.580Z,1.12
2018-07-09T14:40:47.865Z,1.20
2018-07-09T14:43:17.140Z,1.42
2018-07-09T14:45:57.509Z,1.20
2018-07-09T14:48:27.044Z,1.30
2018-07-09T14:50:57.539Z,1.50
2018-07-09T14:53:28.212Z,1.30
2018-07-09T14:55:57.345Z,1.55
2018-07-09T14:58:26.549Z,1.45
2018-07-09T15:00:56.723Z,1.22
2018-07-09T15:03:25.999Z,1.47
2018-07-09T15:05:55.249Z,1.70
2018-07-09T15:08:25.158Z,1.40
2018-07-09T15:10:54.297Z,1.60
2018-07-09T15:13:23.722Z,1.47
2018-07-09T15:15:53.076Z,1.22
2018-07-09T15:18:22.293Z,1.30
2018-07-09T15:20:51.660Z,1.30
2018-07-09T15:23:21.147Z,1.10
2018-07-09T15:25:50.429Z,1.15
2018-07-09T15:28:19.609Z,1.30
2018-07-09T15:30:48.968Z,1.32
2018-07-09T15:33:18.227Z,1.30
2018-07-09T15:35:47.474Z,1.00
2018-07-09T15:38:16.801Z,1.27
2018-07-09T15:40:46.109Z,1.12
2018-07-09T15:43:15.527Z,1.30
2018-07-09T15:45:44.657Z,1.27
2018-07-09T15:48:13.906Z,1.20
2018-07-09T15:50:43.155Z,1.40
2018-07-09T15:53:12.329Z,1.30
2018-07-09T15:55:41.461Z,1.37
2018-07-09T15:58:10.797Z,1.40
2018-07-09T16:00:40.041Z,1.50
2018-07-09T16:03:09.306Z,1.40
2018-07-09T16:05:41.714Z,1.52
2018-07-09T16:08:10.967Z,1.40
2018-07-09T16:10:40.364Z,1.40
2018-07-09T16:13:09.874Z,1.40
2018-07-09T16:15:39.106Z,1.70
2018-07-09T16:18:08.416Z,1.50
2018-07-09T16:20:37.673Z,1.45
2018-07-09T16:23:06.886Z,1.50
2018-07-09T16:25:36.125Z,1.55
2018-07-09T16:28:05.317Z,3.83
2018-07-09T16:30:34.458Z,1.85
2018-07-09T16:33:03.876Z,1.80
2018-07-09T16:35:33.004Z,16.70
2018-07-09T16:38:02.263Z,2.75
2018-07-09T16:40:32.177Z,2.45
2018-07-09T16:43:02.167Z,2.17
2018-07-09T16:45:31.360Z,1.60
2018-07-09T16:48:00.679Z,1.50
2018-07-09T16:50:30.064Z,1.92
2018-07-09T16:52:59.402Z,1.82
2018-07-09T16:55:28.682Z,1.62
2018-07-09T16:57:57.982Z,1.72
2018-07-09T17:00:27.230Z,1.60
2018-07-09T17:02:56.581Z,1.60
2018-07-09T17:05:26.254Z,1.60
2018-07-09T17:07:55.716Z,1.67
2018-07-09T17:10:25.157Z,1.90
2018-07-09T17:12:54.514Z,1.87
2018-07-09T17:15:23.758Z,1.70
2018-07-09T17:17:53.009Z,1.70
2018-07-09T17:20:23.333Z,1.62
2018-07-09T17:22:52.942Z,1.65
2018-07-09T17:25:22.197Z,2.02
2018-07-09T17:27:51.535Z,2.02
2018-07-09T17:30:21.074Z,2.00
2018-07-09T17:32:51.566Z,1.90
2018-07-09T17:35:20.901Z,2.05
2018-07-09T17:37:50.289Z,1.98
2018-07-09T17:40:19.989Z,1.82
2018-07-09T17:42:51.304Z,1.87
2018-07-09T17:45:21.118Z,1.77
2018-07-09T17:48:13.420Z,2.05
2018-07-09T17:51:06.251Z,2.02
2018-07-09T17:53:58.247Z,1.77
2018-07-09T17:56:27.441Z,1.98
2018-07-09T17:58:56.950Z,1.90
2018-07-09T18:01:26.732Z,2.17
2018-07-09T18:03:56.372Z,2.20
2018-07-09T18:06:26.561Z,2.02
2018-07-09T18:08:55.837Z,1.70
2018-07-09T18:11:26.149Z,2.00
2018-07-09T18:13:55.513Z,2.12
2018-07-09T18:16:24.994Z,1.82
2018-07-09T18:18:54.249Z,2.02
2018-07-09T18:21:23.666Z,1.98
2018-07-09T18:23:53.145Z,2.00
2018-07-09T18:26:22.322Z,2.00
2018-07-09T18:28:51.576Z,1.85
2018-07-09T18:31:20.925Z,2.10
2018-07-09T18:33:50.217Z,1.50
2018-07-09T18:36:19.766Z,1.80
2018-07-09T18:38:49.188Z,2.10
2018-07-09T18:41:18.526Z,2.00
2018-07-09T18:43:47.827Z,1.80
2018-07-09T18:46:17.121Z,2.10
2018-07-09T18:48:46.474Z,2.00
2018-07-09T18:51:15.688Z,2.10
2018-07-09T18:53:45.053Z,2.10
2018-07-09T18:56:14.329Z,1.80
2018-07-09T18:58:43.557Z,1.90
2018-07-09T19:01:12.820Z,1.90
2018-07-09T19:03:42.167Z,2.40
2018-07-09T19:07:24.762Z,2.20
2018-07-09T19:09:54.361Z,2.00
2018-07-09T19:12:24.190Z,1.97
2018-07-09T19:14:53.718Z,1.92
2018-07-09T19:18:02.168Z,2.00
2018-07-09T19:20:42.707Z,2.03
2018-07-09T19:23:11.361Z,2.17
2018-07-09T19:25:39.749Z,2.00
2018-07-09T19:28:08.304Z,1.97
2018-07-09T19:30:36.355Z,2.20
2018-07-09T19:33:04.293Z,2.13
2018-07-09T19:35:32.104Z,2.30
2018-07-09T19:38:00.455Z,1.97
2018-07-09T19:40:28.640Z,2.17
2018-07-09T19:42:56.852Z,2.27
2018-07-09T19:45:24.830Z,2.47
2018-07-09T19:47:52.967Z,2.37
2018-07-09T19:50:20.929Z,2.47
2018-07-09T19:52:48.890Z,2.20
2018-07-09T19:55:16.881Z,2.50
2018-07-09T19:57:44.857Z,2.40
2018-07-09T20:00:12.829Z,2.30
2018-07-09T20:02:40.787Z,2.50
2018-07-09T20:05:08.823Z,2.40
2018-07-09T20:07:36.740Z,2.87
2018-07-09T20:10:10.121Z,2.70
2018-07-09T20:12:43.413Z,2.60
2018-07-09T20:15:16.737Z,2.47
2018-07-09T20:17:44.633Z,2.60
2018-07-09T20:20:12.638Z,2.63
2018-07-09T20:22:40.612Z,2.90
2018-07-09T20:25:08.609Z,3.00
2018-07-09T20:27:36.545Z,2.60
2018-07-09T20:30:04.541Z,2.90
2018-07-09T20:32:32.506Z,2.70
2018-07-09T20:35:00.493Z,2.80
2018-07-09T20:37:28.454Z,2.80
2018-07-09T20:39:56.664Z,2.93
2018-07-09T20:42:24.658Z,2.67
2018-07-09T20:44:52.889Z,2.70
2018-07-09T20:47:20.829Z,2.73
2018-07-09T20:49:48.868Z,2.73
2018-07-09T20:52:16.841Z,2.80
2018-07-09T20:54:44.789Z,2.63
2018-07-09T20:57:12.995Z,2.70
2018-07-09T20:59:40.947Z,2.83
2018-07-09T21:02:08.990Z,2.60
2018-07-09T21:04:36.942Z,2.70
2018-07-09T21:07:04.955Z,2.60
2018-07-09T21:09:33.725Z,2.73
2018-07-09T21:12:09.096Z,2.70
2018-07-09T21:14:37.180Z,2.83
2018-07-09T21:17:05.165Z,2.60
2018-07-09T21:19:33.136Z,2.60
2018-07-09T21:22:01.262Z,2.80
2018-07-09T21:24:29.250Z,2.73
2018-07-09T21:26:57.277Z,2.50
2018-07-09T21:29:25.248Z,2.60
2018-07-09T21:31:53.239Z,2.50
2018-07-09T21:34:21.166Z,2.70
2018-07-09T21:36:50.059Z,2.40
2018-07-09T21:39:18.017Z,2.60
2018-07-09T21:41:46.125Z,2.63
2018-07-09T21:44:14.069Z,2.47
2018-07-09T21:46:42.046Z,2.57
2018-07-09T21:49:09.981Z,2.77
2018-07-09T21:51:37.981Z,2.47
2018-07-09T21:54:05.913Z,2.70
2018-07-09T21:56:33.978Z,2.60
2018-07-09T21:59:01.943Z,2.63
2018-07-09T22:01:30.090Z,2.63
2018-07-09T22:03:58.101Z,2.40
2018-07-09T22:06:26.270Z,2.17
2018-07-09T22:08:54.250Z,2.00
2018-07-09T22:11:22.669Z,2.00
2018-07-09T22:13:50.817Z,1.70
2018-07-09T22:16:18.840Z,1.90
2018-07-09T22:18:46.781Z,1.90
2018-07-09T22:21:14.949Z,1.97
2018-07-09T22:23:42.940Z,1.90
2018-07-09T22:26:10.940Z,1.87
2018-07-09T22:28:38.949Z,1.70
2018-07-09T22:31:08.234Z,1.80
2018-07-09T22:33:37.546Z,2.20
2018-07-09T22:36:06.857Z,2.00
2018-07-09T22:38:36.099Z,1.90
2018-07-09T22:41:05.322Z,1.90
2018-07-09T22:43:45.994Z,2.03
2018-07-09T22:46:15.281Z,1.70
2018-07-09T22:48:44.742Z,1.90
2018-07-09T22:51:14.111Z,2.10
2018-07-09T22:53:43.437Z,1.97
2018-07-09T22:56:13.986Z,1.80
2018-07-09T22:58:43.869Z,2.00
2018-07-09T23:01:13.082Z,1.87
2018-07-09T23:03:42.318Z,2.10
2018-07-09T23:06:11.612Z,2.03
2018-07-09T23:08:40.921Z,2.23
2018-07-09T23:11:37.425Z,2.40
2018-07-09T23:16:48.213Z,2.30
2018-07-09T23:20:28.477Z,2.30
2018-07-09T23:22:56.448Z,2.50
2018-07-09T23:25:24.435Z,2.10
2018-07-09T23:27:52.453Z,2.43
2018-07-09T23:30:20.461Z,2.20
2018-07-09T23:32:48.403Z,2.50
2018-07-09T23:35:16.383Z,2.20
2018-07-09T23:37:44.432Z,3.00
2018-07-09T23:40:12.471Z,2.67
2018-07-09T23:42:40.416Z,3.47
2018-07-09T23:45:08.400Z,3.33
2018-07-09T23:47:36.342Z,3.63
2018-07-09T23:50:04.328Z,3.80
2018-07-09T23:52:32.277Z,3.70
2018-07-09T23:55:00.331Z,4.00
2018-07-09T23:59:50.488Z,4.30
